Airfield :
LOGIN :

Register | Disclaimer

   EN    FR    IT 

 










Legend :    VFR   Marginal VFR   IFR   Intensive IFR   Very Intensive IFR
Visi :
Ceiling :
>= 8 km
>= 3000ft
5 to 8 km
1000 to 3000 ft
1500m to 5 km
500 to 1000 ft
800 to 1500m
200 to 500 ft
< 800m
< 200 ft
Symbols :   Thunderstorms  Fog  Heavy snow  Heavy precipitations  Wind > 20 kt
SIGMETs :     Misc.  Thunderstorms  Icing  Turbulence  Mountain Waves  Volcanic Ashes






- Airport Elevation : 1017 ft


LFSL - Brive Souillac

CURRENT METAR :
  • 142100Z AUTO 14003KT 9999 BKN015 BKN027 OVC036 04/04 Q0997 BECMG BKN006

EXPIRED METARs :
  • 142030Z AUTO VRB02KT 9000 FEW005 BKN015 BKN029 03/03 Q0997 BECMG BKN006
  • 142000Z AUTO 12005KT 110V170 5000 BR FEW013 BKN038 03/03 Q0997 BECMG BKN006
  • 141930Z AUTO VRB02KT 9999 ///TCU 03/03 Q0997 BECMG BKN006
  • 141900Z AUTO VRB02KT CAVOK 04/04 Q0997 BECMG BKN006
  • 141830Z AUTO 15004KT 110V180 9999 FEW021 BKN034 OVC066 05/04 Q0997 BECMG BKN006

TAF TAF LFSL
Valid from the 14 at 18:00 until the 15 at 03:00 UTC


141700Z 1418/1503 19005KT 9999 BKN014 BKN030
TEMPO 1418/1419 SCT025TCU
BECMG 1420/1422 BKN006
PROB40
TEMPO 1423/1503 4000 BR OVC002



MET'MAP, your aeronautical weather chart ! - Copyright ORBIFLY December 2007 - Disclaimer

ORBIFLY MET'MAP TEAM :

Programming & Development : Alexandra Zaïnal
Concept & Development : Baudouin d'Aumeries
Co-Development & Prog : Marc-Olivier Méhu
Technical & hardware support : Manuel Goepfert

Contact : metmap@orbifly.com




SOURCES & CREDITS :

   NOAA